South Croydon, United Kingdom
Current Conditions -  °F | °C
As of 4:20 PM on Friday 31 Oct 2014 (Local Time) from EGKB Reporting Station
Clear Clear  
Wind Chill: 64°   Ceiling: Unl
Heat Index: 64°   Visibility: 6mi
Dew Point: 52°   Wind: 15mph
Humidity: 64%   Direction: 170°S
Pressure: 30"   Gusts: NA
Location:  51.35°N, 0.09°W
Report Text: EGKB 311620Z 17013KT CAVOK 18/11 Q1016
Loading
Personal Weather Stations






























Interactive Weather Map
Tropical Storm Tracking
New forecast layout! Learn more

10-Day Weather Forecast

Advertisements
Track Severe Weather on mobile